New Troy, MI (49119)

4:44 AM EST on December 06, 2016 (GMT -0500)
Sawyer, MI | | Change Station

Elev 653 ft 41.87 °N, 86.58 °W | Updated 59 seconds ago

Clear
Clear
32.0 °F
Feels Like 32 °F
N
0.9
Wind Variable Wind from NE
Gusts 2.5 mph

Today
High -- | Low -- °F
--% Chance of Precip.
Yesterday
High -- | Low -- °F
Precip. -- in
Pressure 29.91 in
Visibility 7.0 miles
Clouds Clear
Windchill 32 °F
Dew Point 29 °F
Humidity 88%
Rainfall 0.00 in
Snow Depth Not available.
7:59 AM 5:15 PM
Waxing Crescent, 40% visible
METAR KSBN 060854Z AUTO 10008KT 7SM CLR M01/M02 A2988 RMK AO2 SLP127 T10111022 56022 TSNO
Pressure 29.91 in
Visibility 7.0 miles
Clouds Clear
Windchill 32 °F
Dew Point 29 °F
Humidity 88%
Rainfall 0.00 in
Snow Depth Not available.
7:59 AM 5:15 PM
Waxing Crescent, 40% visible
METAR KSBN 060854Z AUTO 10008KT 7SM CLR M01/M02 A2988 RMK AO2 SLP127 T10111022 56022 TSNO

10-Day Weather Forecast

Almanac

Astronomy

Dec. 06, 2016 Rise Set
Actual Time
Civil Twilight
Nautical Twilight
Astronomical Twilight
Moon
Length of Visible Light
Length of Day
Tomorrow will be .
, % of the Moon is Illuminated

Today's Extremes

State Highs State Lows

Community

WunderPhotos

Upload Photos

1,955,935 photos uploaded!

WunderBlog® & News

Nearby

Air Quality

  Air Quality AQ Index Pollutant
Not available.

Snow Depth

Station Depth Elevation

Earthquake Activity

City Distance Mag. Time & Date
Minimum magnitude displayed is 2.5.

Coastal Water Temperatures

Place Temperature

Stations

Nearby Weather Stations

Station Location Temp. Windchill Dew Point Humidity Wind Precip. Elev Updated Type
                   

Watches & Warnings

There are currently no watches in effect.